createdAt,value
2023-05-19T00:01:25.926Z,2.03
2023-05-19T00:05:08.360Z,2.17
2023-05-19T00:08:51.102Z,2.22
2023-05-19T00:12:33.162Z,2.55
2023-05-19T00:16:15.568Z,2.25
2023-05-19T00:19:57.944Z,2.13
2023-05-19T00:23:39.830Z,3.03
2023-05-19T00:27:21.724Z,2.75
2023-05-19T00:31:05.107Z,2.03
2023-05-19T00:34:48.469Z,2.65
2023-05-19T00:38:35.383Z,2.38
2023-05-19T00:45:59.078Z,2.08
2023-05-19T00:49:41.059Z,2.28
2023-05-19T00:53:24.575Z,2.65
2023-05-19T00:57:06.773Z,3.25
2023-05-19T01:00:49.677Z,2.80
2023-05-19T01:04:34.886Z,3.17
2023-05-19T01:08:17.179Z,2.50
2023-05-19T01:12:00.150Z,3.83
2023-05-19T01:16:12.771Z,3.42
2023-05-19T01:20:06.634Z,4.00
2023-05-19T01:24:05.403Z,3.45
2023-05-19T01:28:16.085Z,3.03
2023-05-19T01:32:01.114Z,4.40
2023-05-19T01:35:44.593Z,3.30
2023-05-19T01:39:27.134Z,3.45
2023-05-19T01:43:12.137Z,3.33
2023-05-19T01:46:54.668Z,3.10
2023-05-19T01:50:36.600Z,3.20
2023-05-19T01:54:18.494Z,3.97
2023-05-19T01:58:37.877Z,3.38
2023-05-19T02:02:31.656Z,3.65
2023-05-19T02:06:51.368Z,3.40
2023-05-19T02:10:37.423Z,3.40
2023-05-19T02:14:35.476Z,3.63
2023-05-19T02:18:19.293Z,3.45
2023-05-19T02:22:01.209Z,3.42
2023-05-19T02:25:43.218Z,3.60
2023-05-19T02:29:25.148Z,3.35
2023-05-19T02:33:07.455Z,3.42
2023-05-19T02:36:50.038Z,3.88
2023-05-19T02:40:32.201Z,4.10
2023-05-19T02:44:14.321Z,3.40
2023-05-19T02:47:56.912Z,3.80
2023-05-19T02:51:38.842Z,3.28
2023-05-19T02:55:21.013Z,3.88
2023-05-19T02:59:02.904Z,3.50
2023-05-19T03:02:44.853Z,3.63
2023-05-19T03:06:26.852Z,3.75
2023-05-19T03:10:09.086Z,4.10
2023-05-19T03:13:50.920Z,3.08
2023-05-19T03:17:34.387Z,4.13
2023-05-19T03:21:16.472Z,4.07
2023-05-19T03:24:58.543Z,4.47
2023-05-19T03:28:40.468Z,3.85
2023-05-19T03:32:22.405Z,4.38
2023-05-19T03:36:04.648Z,4.65
2023-05-19T03:39:46.471Z,3.90
2023-05-19T03:43:28.345Z,4.53
2023-05-19T03:47:10.180Z,3.90
2023-05-19T03:50:52.122Z,3.20
2023-05-19T03:54:34.017Z,3.65
2023-05-19T03:58:16.411Z,4.65
2023-05-19T04:01:58.397Z,3.67
2023-05-19T04:05:40.467Z,4.13
2023-05-19T04:09:24.135Z,4.63
2023-05-19T04:13:06.104Z,4.13
2023-05-19T04:16:48.077Z,3.92
2023-05-19T04:20:30.121Z,4.07
2023-05-19T04:24:12.039Z,3.90
2023-05-19T04:27:57.611Z,4.32
2023-05-19T04:31:41.024Z,4.22
2023-05-19T04:35:23.118Z,4.20
2023-05-19T04:39:10.130Z,3.83
2023-05-19T04:46:34.987Z,4.20
2023-05-19T04:50:17.085Z,4.15
2023-05-19T04:53:59.331Z,4.38
2023-05-19T04:57:41.758Z,4.60
2023-05-19T05:01:26.007Z,4.45
2023-05-19T05:05:09.452Z,4.47
2023-05-19T05:08:52.339Z,5.55
2023-05-19T05:12:35.182Z,5.00
2023-05-19T05:16:17.203Z,4.68
2023-05-19T05:19:59.395Z,4.82
2023-05-19T05:23:41.495Z,4.35
2023-05-19T05:27:23.412Z,4.40
2023-05-19T05:31:05.275Z,4.40
2023-05-19T05:34:47.231Z,4.30
2023-05-19T05:38:29.066Z,5.00
2023-05-19T05:42:12.102Z,4.30
2023-05-19T05:45:53.963Z,4.50
2023-05-19T05:49:38.165Z,4.43
2023-05-19T05:53:21.401Z,4.50
2023-05-19T05:57:04.179Z,4.70
2023-05-19T06:00:48.600Z,4.35
2023-05-19T06:04:31.143Z,4.50
2023-05-19T06:08:13.180Z,5.03
2023-05-19T06:11:55.072Z,4.20
2023-05-19T06:15:36.986Z,4.75
2023-05-19T06:19:20.132Z,4.25
2023-05-19T06:23:03.080Z,4.45
2023-05-19T06:26:45.086Z,4.65
2023-05-19T06:30:26.945Z,4.70
2023-05-19T06:34:12.324Z,4.45
2023-05-19T06:37:55.789Z,4.75
2023-05-19T06:41:37.653Z,4.35
2023-05-19T06:45:21.983Z,4.45
2023-05-19T06:49:07.043Z,4.63
2023-05-19T06:52:48.897Z,4.07
2023-05-19T06:56:30.829Z,4.53
2023-05-19T07:00:15.824Z,4.30
2023-05-19T07:03:59.835Z,4.40
2023-05-19T07:07:41.896Z,4.82
2023-05-19T07:11:24.342Z,4.43
2023-05-19T07:15:06.746Z,3.90
2023-05-19T07:18:48.711Z,4.95
2023-05-19T07:22:30.530Z,3.88
2023-05-19T07:26:12.406Z,4.55
2023-05-19T07:29:54.966Z,3.90
2023-05-19T07:33:38.029Z,4.18
2023-05-19T07:37:19.889Z,4.45
2023-05-19T07:41:02.680Z,3.95
2023-05-19T07:44:44.631Z,4.45
2023-05-19T07:48:26.604Z,4.95
2023-05-19T07:52:08.569Z,4.35
2023-05-19T07:55:50.435Z,4.60
2023-05-19T07:59:32.352Z,5.03
2023-05-19T08:03:17.901Z,4.63
2023-05-19T08:07:00.037Z,4.93
2023-05-19T08:10:41.929Z,5.20
2023-05-19T08:14:23.931Z,5.10
2023-05-19T08:18:05.963Z,4.75
2023-05-19T08:21:48.376Z,4.80
2023-05-19T08:25:30.241Z,5.30
2023-05-19T08:29:12.225Z,4.85
2023-05-19T08:32:54.083Z,4.32
2023-05-19T08:36:35.903Z,4.95
2023-05-19T08:40:18.580Z,5.82
2023-05-19T08:44:00.582Z,5.10
2023-05-19T08:47:43.038Z,5.88
2023-05-19T08:51:50.585Z,5.45
2023-05-19T08:55:38.754Z,5.00
2023-05-19T08:59:22.665Z,5.47
2023-05-19T09:03:17.495Z,5.35
2023-05-19T09:07:04.884Z,6.82
2023-05-19T09:10:46.797Z,5.90
2023-05-19T09:14:29.389Z,6.43
2023-05-19T09:18:17.532Z,5.80
2023-05-19T09:22:03.632Z,6.47
2023-05-19T09:25:53.054Z,5.10
2023-05-19T09:29:34.939Z,5.47
2023-05-19T09:33:20.272Z,5.00
2023-05-19T09:37:02.231Z,5.85
2023-05-19T09:40:44.218Z,6.32
2023-05-19T09:44:30.575Z,5.43
2023-05-19T09:48:14.130Z,4.63
2023-05-19T09:51:56.827Z,5.65
2023-05-19T09:55:38.763Z,4.70
2023-05-19T09:59:25.158Z,4.63
2023-05-19T10:03:07.809Z,5.15
2023-05-19T10:06:56.007Z,4.70
2023-05-19T10:10:39.121Z,5.00
2023-05-19T10:14:28.611Z,5.25
2023-05-19T10:18:11.131Z,4.40
2023-05-19T10:21:53.543Z,5.20
2023-05-19T10:25:37.477Z,4.97
2023-05-19T10:29:25.613Z,4.93
2023-05-19T10:33:12.230Z,5.25
2023-05-19T10:37:10.628Z,5.28
2023-05-19T10:41:27.457Z,4.47
2023-05-19T10:45:19.967Z,5.10
2023-05-19T10:49:01.802Z,5.18
2023-05-19T10:52:44.647Z,5.43
2023-05-19T10:56:33.884Z,5.10
2023-05-19T11:00:38.974Z,6.20
2023-05-19T11:04:51.845Z,5.97
2023-05-19T11:08:35.080Z,5.22
2023-05-19T11:12:25.041Z,4.85
2023-05-19T11:16:09.082Z,5.25
2023-05-19T11:19:59.424Z,5.05
2023-05-19T11:23:42.074Z,5.00
2023-05-19T11:27:28.808Z,4.97
2023-05-19T11:31:11.499Z,5.07
2023-05-19T11:34:55.033Z,4.95
2023-05-19T11:38:37.450Z,4.47
2023-05-19T11:42:19.767Z,5.03
2023-05-19T11:46:01.687Z,5.53
2023-05-19T11:49:44.925Z,4.93
2023-05-19T11:53:33.259Z,5.03
2023-05-19T11:57:16.716Z,5.05
2023-05-19T12:01:04.294Z,5.88
2023-05-19T12:04:47.280Z,4.78
2023-05-19T12:08:29.821Z,5.30
2023-05-19T12:12:17.158Z,4.90
2023-05-19T12:16:04.237Z,5.30
2023-05-19T12:19:48.439Z,5.78
2023-05-19T12:23:30.980Z,5.82
2023-05-19T12:27:26.508Z,6.30
2023-05-19T12:31:08.608Z,5.00
2023-05-19T12:34:51.206Z,5.15
2023-05-19T12:38:33.228Z,5.20
2023-05-19T12:42:16.620Z,5.55
2023-05-19T12:45:58.491Z,5.38
2023-05-19T12:49:56.901Z,5.65
2023-05-19T12:53:38.848Z,5.00
2023-05-19T12:57:21.585Z,4.50
2023-05-19T13:01:04.127Z,5.50
2023-05-19T13:04:46.123Z,5.55
2023-05-19T13:08:27.971Z,4.47
2023-05-19T13:12:09.897Z,5.15
2023-05-19T13:15:51.835Z,5.35
2023-05-19T13:19:34.167Z,4.28
2023-05-19T13:23:16.493Z,4.57
2023-05-19T13:26:58.518Z,5.53
2023-05-19T13:30:41.832Z,5.35
2023-05-19T13:34:23.947Z,5.78
2023-05-19T13:38:08.012Z,5.50
2023-05-19T13:41:50.532Z,5.40
2023-05-19T13:45:32.451Z,5.85
2023-05-19T13:49:14.325Z,5.38
2023-05-19T13:52:56.408Z,5.70
2023-05-19T13:56:38.754Z,5.07
2023-05-19T14:00:21.413Z,5.18
2023-05-19T14:04:03.470Z,4.88
2023-05-19T14:07:45.503Z,4.50
2023-05-19T14:11:27.381Z,4.13
2023-05-19T14:15:11.248Z,4.07
2023-05-19T14:18:53.438Z,4.20
2023-05-19T14:22:35.313Z,4.18
2023-05-19T14:26:17.205Z,3.80
2023-05-19T14:29:59.183Z,3.58
2023-05-19T14:33:41.502Z,4.15
2023-05-19T14:37:23.382Z,4.13
2023-05-19T14:41:07.911Z,4.05
2023-05-19T14:44:49.782Z,3.55
2023-05-19T14:48:32.104Z,3.50
2023-05-19T14:52:13.960Z,3.50
2023-05-19T14:55:56.008Z,3.55
2023-05-19T14:59:38.207Z,3.30
2023-05-19T15:03:20.185Z,3.42
2023-05-19T15:10:50.397Z,5.55
2023-05-19T15:14:32.271Z,5.25
2023-05-19T15:18:17.809Z,4.90
2023-05-19T15:21:59.723Z,5.50
2023-05-19T15:25:41.759Z,5.95
2023-05-19T15:29:23.738Z,4.80
2023-05-19T15:33:06.002Z,5.25
2023-05-19T15:36:47.951Z,4.47
2023-05-19T15:40:29.825Z,4.25
2023-05-19T15:44:11.701Z,3.92
2023-05-19T15:47:53.819Z,4.18
2023-05-19T15:51:35.880Z,4.43
2023-05-19T15:55:17.872Z,5.13
2023-05-19T15:58:59.801Z,4.78
2023-05-19T16:02:41.833Z,5.25
2023-05-19T16:06:24.691Z,5.07
2023-05-19T16:10:07.332Z,5.47
2023-05-19T16:13:49.286Z,5.28
2023-05-19T16:17:31.280Z,6.53
2023-05-19T16:21:13.231Z,5.82
2023-05-19T16:24:55.131Z,6.05
2023-05-19T16:28:37.121Z,5.40
2023-05-19T16:32:19.268Z,5.22
2023-05-19T16:36:01.196Z,5.55
2023-05-19T16:39:44.058Z,5.70
2023-05-19T16:43:26.337Z,5.53
2023-05-19T16:47:08.349Z,5.57
2023-05-19T16:50:50.208Z,5.40
2023-05-19T16:54:32.055Z,4.97
2023-05-19T16:58:13.965Z,5.60
2023-05-19T17:01:58.854Z,4.28
2023-05-19T17:05:41.989Z,4.65
2023-05-19T17:09:26.233Z,5.00
2023-05-19T17:13:08.203Z,5.50
2023-05-19T17:16:50.353Z,5.85
2023-05-19T17:20:32.523Z,6.38
2023-05-19T17:24:14.635Z,5.90
2023-05-19T17:27:56.504Z,4.70
2023-05-19T17:31:38.404Z,4.32
2023-05-19T17:35:20.499Z,4.38
2023-05-19T17:39:02.641Z,3.90
2023-05-19T17:42:44.477Z,4.05
2023-05-19T17:46:26.513Z,4.55
2023-05-19T17:50:09.175Z,5.50
2023-05-19T17:53:51.331Z,7.15
2023-05-19T17:57:35.201Z,6.03
2023-05-19T18:01:17.989Z,5.70
2023-05-19T18:05:00.297Z,5.78
2023-05-19T18:08:46.038Z,5.50
2023-05-19T18:12:27.940Z,5.63
2023-05-19T18:16:10.677Z,5.75
2023-05-19T18:19:52.671Z,5.63
2023-05-19T18:23:34.601Z,6.43
2023-05-19T18:27:16.432Z,5.15
2023-05-19T18:31:03.709Z,5.60
2023-05-19T18:34:45.804Z,5.30
2023-05-19T18:38:28.038Z,5.63
2023-05-19T18:42:10.013Z,5.75
2023-05-19T18:45:52.073Z,5.20
2023-05-19T18:49:34.023Z,5.95
2023-05-19T18:53:16.086Z,5.80
2023-05-19T18:56:58.315Z,6.00
2023-05-19T19:00:40.182Z,5.70
2023-05-19T19:04:22.579Z,5.05
2023-05-19T19:08:05.758Z,5.05
2023-05-19T19:11:47.669Z,5.30
2023-05-19T19:15:30.886Z,4.80
2023-05-19T19:19:12.775Z,4.85
2023-05-19T19:22:54.977Z,5.20
2023-05-19T19:26:38.064Z,4.53
2023-05-19T19:30:20.023Z,5.40
2023-05-19T19:34:08.028Z,5.35
2023-05-19T19:37:51.747Z,4.50
2023-05-19T19:41:33.883Z,4.90
2023-05-19T19:45:16.102Z,4.68
2023-05-19T19:49:00.399Z,4.30
2023-05-19T19:52:42.369Z,4.53
2023-05-19T19:56:25.118Z,5.30
2023-05-19T20:00:08.457Z,5.00
2023-05-19T20:03:50.554Z,5.43
2023-05-19T20:07:32.779Z,5.03
2023-05-19T20:11:15.324Z,4.40
2023-05-19T20:14:57.461Z,4.80
2023-05-19T20:18:39.687Z,6.18
2023-05-19T20:22:21.634Z,8.55
2023-05-19T20:26:12.571Z,10.38
2023-05-19T20:29:55.556Z,17.67
2023-05-19T20:33:37.472Z,11.15
2023-05-19T20:37:19.404Z,7.18
2023-05-19T20:41:02.175Z,6.78
2023-05-19T20:44:44.361Z,5.75
2023-05-19T20:48:26.338Z,6.25
2023-05-19T20:52:08.417Z,6.50
2023-05-19T20:55:50.692Z,6.40
2023-05-19T20:59:33.411Z,5.53
2023-05-19T21:03:15.942Z,6.05
2023-05-19T21:06:57.893Z,6.43
2023-05-19T21:10:39.961Z,6.20
2023-05-19T21:14:23.027Z,5.68
2023-05-19T21:18:05.184Z,5.85
2023-05-19T21:21:47.842Z,5.13
2023-05-19T21:25:31.072Z,5.28
2023-05-19T21:29:12.935Z,4.90
2023-05-19T21:32:54.986Z,5.30
2023-05-19T21:36:36.969Z,5.63
2023-05-19T21:40:18.849Z,5.85
2023-05-19T21:44:00.722Z,6.68
2023-05-19T21:47:42.607Z,6.75
2023-05-19T21:51:24.492Z,6.70
2023-05-19T21:55:07.146Z,6.47
2023-05-19T21:58:48.993Z,5.90
2023-05-19T22:02:30.935Z,6.38
2023-05-19T22:06:12.918Z,6.32
2023-05-19T22:09:54.845Z,6.65
2023-05-19T22:13:41.029Z,6.63
2023-05-19T22:17:22.975Z,6.55
2023-05-19T22:21:04.996Z,6.90
2023-05-19T22:24:46.946Z,7.50
2023-05-19T22:28:28.761Z,7.70
2023-05-19T22:32:12.143Z,8.05
2023-05-19T22:35:54.233Z,7.38
2023-05-19T22:39:36.640Z,8.98
2023-05-19T22:43:18.528Z,8.60
2023-05-19T22:47:00.386Z,8.63
2023-05-19T22:50:42.257Z,8.43
2023-05-19T22:54:24.168Z,9.20
2023-05-19T22:58:06.725Z,7.68
2023-05-19T23:01:48.673Z,7.65
2023-05-19T23:05:30.602Z,8.65
2023-05-19T23:09:12.774Z,8.85
2023-05-19T23:12:54.872Z,7.43
2023-05-19T23:16:36.780Z,7.70
2023-05-19T23:20:18.740Z,7.65
2023-05-19T23:24:00.709Z,8.65
2023-05-19T23:27:42.574Z,8.50
2023-05-19T23:31:24.542Z,8.38
2023-05-19T23:35:15.696Z,7.95
2023-05-19T23:38:57.572Z,8.57
2023-05-19T23:42:39.656Z,9.40
2023-05-19T23:46:21.624Z,8.43
2023-05-19T23:50:03.688Z,8.75
2023-05-19T23:53:45.647Z,8.85
2023-05-19T23:57:27.515Z,9.20
